Time;durP1;ratioP1;P1;durP2;ratioP2;P2;SDS_P1;SDS_P2;PMS_P1;PMS_P2;Temp;Humidity;BMP_temperature;BMP_pressure;BME280_temperature;BME280_humidity;BME280_pressure;Samples;Min_cycle;Max_cycle;Signal;HPM_P1;HPM_P2
2021/05/20 00:01:19;;;;;;;41.88;14.18;;;7.00;99.90;;;;;;5074565;28;20052;-80
2021/05/20 00:03:45;;;;;;;24.30;13.18;;;6.90;99.90;;;;;;5060707;28;20032;-80
2021/05/20 00:06:11;;;;;;;13.40;12.00;;;6.90;99.90;;;;;;5083499;28;20084;-80
2021/05/20 00:08:37;;;;;;;32.85;13.98;;;7.10;99.90;;;;;;5065742;28;20068;-82
2021/05/20 00:11:03;;;;;;;35.55;16.83;;;7.10;99.90;;;;;;5080350;28;20040;-81
2021/05/20 00:13:28;;;;;;;62.85;15.82;;;6.90;99.90;;;;;;5071603;28;20021;-80
2021/05/20 00:15:54;;;;;;;16.20;14.18;;;6.80;99.90;;;;;;5087283;28;20024;-80
2021/05/20 00:18:20;;;;;;;25.02;15.95;;;6.80;99.90;;;;;;5054629;28;20106;-81
2021/05/20 00:20:47;;;;;;;37.50;17.52;;;7.00;99.90;;;;;;5068174;28;20047;-81
2021/05/20 00:23:13;;;;;;;26.25;16.83;;;6.80;99.90;;;;;;5035652;28;20036;-81
2021/05/20 00:25:39;;;;;;;19.15;15.32;;;6.80;99.90;;;;;;5029562;28;20048;-82
2021/05/20 00:28:05;;;;;;;17.88;15.90;;;6.80;99.90;;;;;;5053977;28;20426;-80
2021/05/20 00:30:31;;;;;;;18.73;15.90;;;6.70;99.90;;;;;;5036482;28;20044;-83
2021/05/20 00:32:57;;;;;;;25.30;18.45;;;6.80;99.90;;;;;;5054281;28;20078;-82
2021/05/20 00:35:23;;;;;;;19.33;17.23;;;6.70;99.90;;;;;;5053678;28;20458;-80
2021/05/20 00:37:49;;;;;;;21.50;17.35;;;6.70;99.90;;;;;;5050122;28;20083;-80
2021/05/20 00:40:16;;;;;;;19.35;16.85;;;6.60;99.90;;;;;;5065654;28;20464;-79
2021/05/20 00:42:45;;;;;;;21.15;15.60;;;6.70;99.90;;;;;;5059767;28;20033;-79
2021/05/20 00:45:12;;;;;;;20.30;16.85;;;6.70;99.90;;;;;;5029623;28;20127;-80
2021/05/20 00:47:38;;;;;;;21.63;14.90;;;6.60;99.90;;;;;;5063579;28;20040;-81
2021/05/20 00:50:07;;;;;;;16.35;14.20;;;6.60;99.90;;;;;;5065060;28;20043;-80
2021/05/20 00:52:34;;;;;;;15.63;13.75;;;6.60;99.90;;;;;;5054000;28;20036;-81
2021/05/20 00:55:05;;;;;;;18.90;15.27;;;6.60;99.90;;;;;;5071215;28;20051;-81
2021/05/20 00:57:31;;;;;;;20.90;15.43;;;6.60;99.90;;;;;;5055788;28;20044;-78
2021/05/20 01:00:16;;;;;;;17.88;14.45;;;6.50;99.90;;;;;;5054516;28;20051;-79
2021/05/20 01:02:42;;;;;;;18.08;15.82;;;6.50;99.90;;;;;;5051105;28;20487;-79
2021/05/20 01:05:10;;;;;;;19.70;16.05;;;6.50;99.90;;;;;;5051451;28;20048;-79
2021/05/20 01:07:36;;;;;;;19.73;16.83;;;6.50;99.90;;;;;;5027538;28;20059;-79
2021/05/20 01:10:04;;;;;;;22.00;17.08;;;6.50;99.90;;;;;;5052195;28;20531;-78
2021/05/20 01:12:31;;;;;;;17.85;15.68;;;6.60;99.90;;;;;;5035999;28;20327;-78
2021/05/20 01:14:57;;;;;;;19.63;15.50;;;6.60;99.90;;;;;;5067803;28;20416;-80
2021/05/20 01:17:25;;;;;;;18.25;14.77;;;6.50;99.90;;;;;;5048506;28;20091;-81
2021/05/20 01:19:51;;;;;;;16.52;14.68;;;6.50;99.90;;;;;;5069255;28;20072;-79
2021/05/20 01:22:17;;;;;;;16.90;14.65;;;6.50;99.90;;;;;;5050481;28;20392;-78
2021/05/20 01:24:44;;;;;;;19.08;15.75;;;6.40;99.90;;;;;;5049064;28;20068;-81
2021/05/20 01:27:11;;;;;;;18.58;16.23;;;6.40;99.90;;;;;;5070756;28;20462;-80
2021/05/20 01:29:40;;;;;;;18.50;15.57;;;6.40;99.90;;;;;;5067789;28;20062;-80
2021/05/20 01:32:06;;;;;;;16.48;14.68;;;6.30;99.90;;;;;;5050793;28;20055;-80
2021/05/20 01:34:33;;;;;;;16.52;14.30;;;6.40;99.90;;;;;;5056045;28;20047;-80
2021/05/20 01:37:04;;;;;;;18.73;15.68;;;6.40;99.90;;;;;;5048602;28;20037;-81
2021/05/20 01:39:30;;;;;;;18.08;14.77;;;6.40;99.90;;;;;;5067721;28;20045;-79
2021/05/20 01:41:56;;;;;;;18.80;13.73;;;6.40;99.90;;;;;;5056429;28;20072;-81
2021/05/20 01:44:22;;;;;;;20.38;15.02;;;6.40;99.90;;;;;;5060162;28;20109;-81
2021/05/20 01:46:49;;;;;;;15.77;13.63;;;6.40;99.90;;;;;;5066727;28;20417;-79
2021/05/20 01:49:15;;;;;;;16.85;14.25;;;6.40;99.90;;;;;;5070520;28;20129;-81
2021/05/20 01:51:42;;;;;;;18.20;14.70;;;6.40;99.90;;;;;;5065519;28;20052;-79
2021/05/20 01:54:08;;;;;;;17.27;15.18;;;6.60;99.90;;;;;;5072506;28;20036;-82
2021/05/20 01:56:36;;;;;;;19.73;16.02;;;6.40;99.90;;;;;;5049432;28;20450;-79
2021/05/20 01:59:06;;;;;;;18.85;15.40;;;6.40;99.90;;;;;;5052180;28;20044;-82
2021/05/20 02:01:33;;;;;;;18.75;15.88;;;6.60;99.90;;;;;;5069060;28;20040;-80
2021/05/20 02:03:59;;;;;;;18.20;15.48;;;6.40;99.90;;;;;;5068923;28;21928;-81
2021/05/20 02:06:25;;;;;;;19.33;15.90;;;6.30;99.90;;;;;;5051016;28;20047;-79
2021/05/20 02:08:51;;;;;;;16.50;14.60;;;6.30;99.90;;;;;;5052084;28;20127;-78
2021/05/20 02:11:17;;;;;;;18.55;15.75;;;6.30;99.90;;;;;;5050165;28;20049;-81
2021/05/20 02:13:43;;;;;;;20.15;16.52;;;6.30;99.90;;;;;;5050327;28;20052;-82
2021/05/20 02:16:09;;;;;;;20.33;16.25;;;6.20;99.90;;;;;;5067041;28;20037;-81
2021/05/20 02:18:36;;;;;;;17.75;14.63;;;6.20;99.90;;;;;;5055175;28;20052;-79
2021/05/20 02:21:03;;;;;;;20.13;16.25;;;6.20;99.90;;;;;;5049681;28;20112;-81
2021/05/20 02:23:29;;;;;;;17.98;15.55;;;6.20;99.90;;;;;;5069320;28;20498;-81
2021/05/20 02:25:54;;;;;;;18.38;15.57;;;6.10;99.90;;;;;;5065593;28;20037;-80
2021/05/20 02:28:20;;;;;;;21.58;16.23;;;6.20;99.90;;;;;;5070027;28;20155;-78
2021/05/20 02:30:46;;;;;;;18.17;15.18;;;6.10;99.90;;;;;;5068691;28;20041;-82
2021/05/20 02:33:12;;;;;;;16.90;14.45;;;6.10;99.90;;;;;;5070450;28;20587;-80
2021/05/20 02:35:38;;;;;;;19.20;15.80;;;6.10;99.90;;;;;;5032672;28;20516;-80
2021/05/20 02:38:04;;;;;;;20.17;15.57;;;6.10;99.90;;;;;;5048095;28;20041;-81
2021/05/20 02:40:30;;;;;;;16.65;14.57;;;6.20;99.90;;;;;;5051187;28;20079;-81
2021/05/20 02:42:56;;;;;;;17.50;14.57;;;6.00;99.90;;;;;;5051642;28;20032;-80
2021/05/20 02:45:24;;;;;;;18.58;14.63;;;6.00;99.90;;;;;;5064591;28;20036;-81
2021/05/20 02:47:52;;;;;;;19.60;16.50;;;6.10;99.90;;;;;;5067606;28;20082;-81
2021/05/20 02:50:21;;;;;;;19.30;15.90;;;6.00;99.90;;;;;;5065322;28;20039;-80
2021/05/20 02:52:47;;;;;;;24.30;18.25;;;6.00;99.90;;;;;;5049004;28;20045;-80
2021/05/20 02:55:15;;;;;;;23.90;17.73;;;6.00;99.90;;;;;;5050464;28;20131;-80
2021/05/20 02:57:44;;;;;;;35.63;18.80;;;6.00;99.90;;;;;;5050096;28;20044;-80
2021/05/20 03:00:11;;;;;;;45.28;20.38;;;6.10;99.90;;;;;;5047899;28;20045;-79
2021/05/20 03:02:37;;;;;;;96.05;20.95;;;6.00;99.90;;;;;;5048563;28;20136;-82
2021/05/20 03:05:05;;;;;;;52.47;20.83;;;5.90;99.90;;;;;;5050492;28;20108;-80
2021/05/20 03:07:31;;;;;;;70.25;20.35;;;6.00;99.90;;;;;;5049748;28;20915;-78
2021/05/20 03:09:57;;;;;;;74.15;23.40;;;5.90;99.90;;;;;;5049898;28;20032;-78
2021/05/20 03:12:23;;;;;;;34.40;20.02;;;5.90;99.90;;;;;;5069228;28;20440;-81
2021/05/20 03:14:49;;;;;;;149.70;23.45;;;5.90;99.90;;;;;;5031668;28;20045;-77
2021/05/20 03:17:15;;;;;;;75.75;23.35;;;5.90;99.90;;;;;;5047781;28;20052;-78
2021/05/20 03:19:40;;;;;;;21.10;17.83;;;5.90;99.90;;;;;;5063810;28;20039;-78
2021/05/20 03:22:07;;;;;;;147.68;24.02;;;5.90;99.90;;;;;;5049593;28;20055;-81
2021/05/20 03:24:35;;;;;;;136.02;22.42;;;5.90;99.90;;;;;;5049781;28;20055;-79
2021/05/20 03:27:01;;;;;;;154.05;22.65;;;5.90;99.90;;;;;;5067798;28;20044;-79
2021/05/20 03:29:27;;;;;;;234.60;23.65;;;5.90;99.90;;;;;;5051184;28;20041;-82
2021/05/20 03:31:53;;;;;;;33.92;21.40;;;5.90;99.90;;;;;;5053914;28;20114;-80
2021/05/20 03:34:19;;;;;;;133.68;25.88;;;5.90;99.90;;;;;;5071436;28;20395;-78
2021/05/20 03:36:45;;;;;;;31.67;22.00;;;5.90;99.90;;;;;;5069698;28;20033;-84
2021/05/20 03:39:11;;;;;;;161.00;25.15;;;5.90;99.90;;;;;;5056125;28;20049;-81
2021/05/20 03:41:37;;;;;;;158.25;26.38;;;6.00;99.90;;;;;;5052698;28;20436;-78
2021/05/20 03:44:03;;;;;;;287.65;27.98;;;6.00;99.90;;;;;;5052822;28;20105;-80
2021/05/20 03:46:28;;;;;;;133.55;26.75;;;6.00;99.90;;;;;;5066864;28;20052;-78
2021/05/20 03:48:55;;;;;;;215.80;29.83;;;6.00;99.90;;;;;;5051400;28;20059;-79
2021/05/20 03:51:21;;;;;;;99.53;27.33;;;6.00;99.90;;;;;;5050681;28;20364;-79
2021/05/20 03:53:47;;;;;;;96.90;26.80;;;6.00;99.90;;;;;;5072681;28;20035;-80
2021/05/20 03:56:13;;;;;;;69.70;26.15;;;6.00;99.90;;;;;;5053864;28;20033;-79
2021/05/20 03:58:39;;;;;;;37.33;25.27;;;6.10;99.90;;;;;;5052897;28;20036;-80
2021/05/20 04:01:05;;;;;;;85.70;26.80;;;6.10;99.90;;;;;;5070880;28;20482;-80
2021/05/20 04:03:32;;;;;;;77.97;24.45;;;6.20;99.90;;;;;;5052678;28;21194;-80
2021/05/20 04:06:00;;;;;;;27.27;21.42;;;6.20;99.90;;;;;;5070518;28;20442;-81
2021/05/20 04:08:26;;;;;;;128.63;25.23;;;6.30;99.90;;;;;;5070426;28;20459;-80
2021/05/20 04:10:52;;;;;;;157.02;27.88;;;6.30;99.90;;;;;;5069989;28;20097;-80
2021/05/20 04:13:29;;;;;;;28.35;22.42;;;6.30;99.90;;;;;;5070225;28;20070;-79
2021/05/20 04:15:55;;;;;;;139.95;24.50;;;6.40;99.90;;;;;;5051405;28;20050;-79
2021/05/20 04:18:21;;;;;;;84.18;24.90;;;6.40;99.90;;;;;;5049878;28;20130;-80
2021/05/20 04:20:48;;;;;;;81.43;26.73;;;6.40;99.90;;;;;;5069068;28;20048;-80
2021/05/20 04:23:14;;;;;;;81.88;25.77;;;6.60;99.90;;;;;;5058161;28;20387;-79
2021/05/20 04:25:41;;;;;;;56.50;26.48;;;6.60;99.90;;;;;;5052153;28;20291;-79
2021/05/20 04:28:08;;;;;;;32.08;24.05;;;6.60;99.90;;;;;;5053656;28;20044;-79
2021/05/20 04:30:34;;;;;;;38.80;26.05;;;6.70;99.90;;;;;;5045583;28;20527;-82
2021/05/20 04:33:00;;;;;;;34.17;25.70;;;6.80;99.90;;;;;;5052515;28;20160;-79
2021/05/20 04:35:25;;;;;;;34.53;25.52;;;6.80;99.90;;;;;;5053700;28;20468;-80
2021/05/20 04:37:51;;;;;;;33.30;25.50;;;6.90;99.90;;;;;;5050478;28;20036;-80
2021/05/20 04:40:17;;;;;;;32.22;24.42;;;7.00;99.90;;;;;;5050866;28;20457;-81
2021/05/20 04:42:43;;;;;;;36.90;26.10;;;7.00;99.90;;;;;;5069519;28;20043;-79
2021/05/20 04:45:10;;;;;;;28.02;23.17;;;7.10;99.90;;;;;;5033920;28;20041;-79
2021/05/20 04:47:35;;;;;;;27.50;22.70;;;7.20;99.90;;;;;;5050606;28;20075;-80
2021/05/20 04:50:02;;;;;;;34.47;25.83;;;7.20;99.90;;;;;;5051720;28;20047;-79
2021/05/20 04:52:28;;;;;;;27.60;23.05;;;7.20;99.90;;;;;;5052682;28;20044;-81
2021/05/20 04:54:54;;;;;;;32.47;25.02;;;7.30;99.90;;;;;;5070866;28;20125;-80
2021/05/20 04:57:20;;;;;;;32.60;25.30;;;7.40;99.90;;;;;;5048151;28;20075;-79
2021/05/20 04:59:45;;;;;;;20.65;17.92;;;7.50;99.90;;;;;;5069264;28;20029;-79
2021/05/20 05:02:13;;;;;;;30.38;24.30;;;8.10;99.90;;;;;;5066465;28;20052;-78
2021/05/20 05:04:38;;;;;;;30.88;24.70;;;8.00;99.90;;;;;;5052242;28;20123;-78
2021/05/20 05:07:04;;;;;;;31.85;26.05;;;8.00;99.90;;;;;;5053318;28;20047;-79
2021/05/20 05:09:30;;;;;;;30.08;25.60;;;8.00;99.90;;;;;;5057279;28;20060;-78
2021/05/20 05:11:56;;;;;;;33.20;25.00;;;8.00;99.90;;;;;;5070322;28;20043;-79
2021/05/20 05:14:22;;;;;;;30.67;24.65;;;8.10;99.90;;;;;;5055403;28;20059;-78
2021/05/20 05:16:47;;;;;;;31.83;24.55;;;8.10;99.90;;;;;;5054638;28;20121;-80
2021/05/20 05:19:13;;;;;;;29.38;24.35;;;8.30;99.90;;;;;;5054317;28;20648;-80
2021/05/20 05:21:40;;;;;;;29.73;24.50;;;8.30;99.90;;;;;;5052714;28;20049;-76
2021/05/20 05:24:06;;;;;;;32.63;26.08;;;8.40;99.90;;;;;;5053497;28;20037;-76
2021/05/20 05:26:32;;;;;;;31.15;25.48;;;8.50;99.90;;;;;;5071585;28;20468;-76
2021/05/20 05:28:57;;;;;;;35.40;26.20;;;8.60;99.90;;;;;;5070084;28;20032;-76
2021/05/20 05:31:25;;;;;;;30.38;25.25;;;8.60;99.90;;;;;;5051238;28;20041;-78
2021/05/20 05:33:51;;;;;;;32.70;26.85;;;8.70;99.90;;;;;;5069363;28;20064;-78
2021/05/20 05:36:17;;;;;;;33.38;25.85;;;8.80;99.90;;;;;;5051260;28;20079;-78
2021/05/20 05:38:45;;;;;;;31.23;23.75;;;8.90;99.90;;;;;;5037449;28;20044;-77
2021/05/20 05:41:12;;;;;;;29.40;24.15;;;9.00;99.90;;;;;;5058771;28;20037;-79
2021/05/20 05:43:38;;;;;;;30.52;24.35;;;9.10;99.90;;;;;;5053109;28;20032;-78
2021/05/20 05:46:03;;;;;;;28.65;23.58;;;9.30;99.90;;;;;;5054141;28;20081;-79
2021/05/20 05:48:29;;;;;;;28.70;22.85;;;9.20;99.90;;;;;;5071388;28;20471;-77
2021/05/20 05:50:57;;;;;;;27.02;22.88;;;9.40;99.90;;;;;;5052537;28;20033;-79
2021/05/20 05:53:24;;;;;;;28.15;22.42;;;9.40;99.90;;;;;;5071991;28;20050;-79
2021/05/20 05:55:51;;;;;;;29.10;21.70;;;9.50;99.90;;;;;;5071053;28;20181;-79
2021/05/20 05:58:18;;;;;;;27.88;21.42;;;9.70;99.90;;;;;;5052064;28;20049;-79
2021/05/20 06:00:46;;;;;;;24.70;20.38;;;9.70;99.90;;;;;;5067330;28;20105;-78
2021/05/20 06:03:13;;;;;;;28.10;20.67;;;9.80;99.90;;;;;;5069599;28;20518;-77
2021/05/20 06:05:39;;;;;;;23.10;17.90;;;9.90;99.90;;;;;;5050315;28;20468;-77
2021/05/20 06:08:05;;;;;;;19.42;17.35;;;10.00;99.90;;;;;;5070206;28;20079;-76
2021/05/20 06:10:31;;;;;;;21.50;18.13;;;10.00;99.90;;;;;;5051721;28;20063;-77
2021/05/20 06:12:57;;;;;;;23.00;17.13;;;10.10;99.90;;;;;;5068754;28;20496;-76
2021/05/20 06:15:23;;;;;;;21.42;15.82;;;10.20;99.90;;;;;;5066486;28;20112;-77
2021/05/20 06:17:49;;;;;;;20.05;14.18;;;10.30;99.90;;;;;;5069632;28;20104;-78
2021/05/20 06:20:15;;;;;;;21.98;14.32;;;10.40;99.90;;;;;;5051123;28;20127;-77
2021/05/20 06:22:40;;;;;;;16.08;13.45;;;10.60;99.90;;;;;;5069846;28;20040;-78
2021/05/20 06:25:06;;;;;;;13.90;11.90;;;10.50;99.90;;;;;;5050474;28;20047;-77
2021/05/20 06:27:35;;;;;;;13.60;12.20;;;10.60;99.90;;;;;;5051802;28;20024;-78
2021/05/20 06:30:01;;;;;;;19.73;13.25;;;10.80;99.90;;;;;;5034915;28;20127;-78
2021/05/20 06:32:28;;;;;;;16.85;13.65;;;11.00;99.90;;;;;;5051250;28;20494;-79
2021/05/20 06:34:54;;;;;;;15.63;14.10;;;11.10;99.90;;;;;;5050523;28;20123;-79
2021/05/20 06:37:20;;;;;;;21.50;18.80;;;11.10;99.90;;;;;;5050826;28;20867;-79
2021/05/20 06:39:46;;;;;;;24.00;18.67;;;11.30;99.90;;;;;;5051174;28;20056;-78
2021/05/20 06:42:14;;;;;;;21.98;16.95;;;11.30;99.90;;;;;;5050238;28;20033;-78
2021/05/20 06:44:41;;;;;;;18.35;15.60;;;11.20;99.90;;;;;;5068868;28;20056;-78
2021/05/20 06:47:07;;;;;;;18.30;15.93;;;11.20;99.90;;;;;;5058882;28;20586;-80
2021/05/20 06:49:34;;;;;;;18.35;15.05;;;11.30;99.90;;;;;;5068382;28;20106;-79
2021/05/20 06:52:00;;;;;;;17.92;15.52;;;11.30;99.90;;;;;;5051115;28;20048;-78
2021/05/20 06:54:26;;;;;;;16.92;15.15;;;11.40;99.90;;;;;;5047601;28;20127;-78
2021/05/20 06:56:56;;;;;;;17.10;15.32;;;11.50;99.90;;;;;;5068858;28;20083;-78
2021/05/20 07:02:06;;;;;;;17.55;12.85;;;11.70;99.90;;;;;;5078002;28;20377;-78
2021/05/20 07:04:32;;;;;;;12.13;10.88;;;11.70;99.90;;;;;;5054928;28;20055;-79
2021/05/20 07:07:02;;;;;;;16.55;12.63;;;11.70;99.90;;;;;;5052672;28;20048;-80
2021/05/20 07:09:28;;;;;;;13.85;12.35;;;11.80;99.90;;;;;;5073602;28;20045;-79
2021/05/20 07:11:56;;;;;;;14.38;12.30;;;11.90;99.90;;;;;;5071725;28;20488;-79
2021/05/20 07:14:22;;;;;;;12.57;9.52;;;11.90;99.90;;;;;;5055383;28;20055;-78
2021/05/20 07:16:48;;;;;;;14.80;10.07;;;11.80;99.90;;;;;;5055447;28;20040;-78
2021/05/20 07:19:14;;;;;;;11.95;9.90;;;11.90;99.90;;;;;;5054951;28;20128;-80
2021/05/20 07:21:40;;;;;;;13.15;9.98;;;12.00;99.90;;;;;;5070935;28;20158;-78
2021/05/20 07:24:06;;;;;;;13.73;10.18;;;11.90;99.90;;;;;;5053703;28;20555;-80
2021/05/20 07:26:32;;;;;;;13.77;10.02;;;12.10;99.90;;;;;;5053008;28;20044;-79
2021/05/20 07:28:58;;;;;;;12.02;9.48;;;12.20;99.90;;;;;;5054259;28;20063;-77
2021/05/20 07:31:24;;;;;;;16.77;9.63;;;12.40;99.90;;;;;;5059187;28;20029;-82
2021/05/20 07:33:50;;;;;;;12.45;9.73;;;12.50;99.90;;;;;;5045391;28;20053;-80
2021/05/20 07:36:16;;;;;;;10.63;8.63;;;12.60;99.90;;;;;;5057323;28;20128;-81
2021/05/20 07:38:42;;;;;;;9.60;8.02;;;12.50;99.90;;;;;;5058065;28;20434;-84
2021/05/20 07:41:08;;;;;;;9.95;8.40;;;12.60;99.90;;;;;;5059262;28;20033;-83
2021/05/20 07:43:34;;;;;;;9.98;8.02;;;12.70;99.90;;;;;;5087792;28;20039;-80
2021/05/20 07:46:00;;;;;;;10.00;6.72;;;12.50;99.90;;;;;;5085053;28;20043;-83
2021/05/20 07:48:32;;;;;;;8.35;6.50;;;12.50;99.90;;;;;;5040373;28;20051;-84
2021/05/20 07:50:58;;;;;;;10.35;7.53;;;12.60;99.90;;;;;;5040165;28;20033;-86
2021/05/20 07:53:24;;;;;;;7.65;5.90;;;12.70;99.90;;;;;;5049311;28;20135;-84
2021/05/20 07:55:50;;;;;;;9.43;6.60;;;12.70;99.90;;;;;;5055586;28;20108;-81
2021/05/20 07:58:16;;;;;;;7.18;6.18;;;12.80;99.90;;;;;;5059497;28;20040;-81
2021/05/20 08:00:42;;;;;;;9.88;6.30;;;12.70;99.90;;;;;;5056484;28;20476;-82
2021/05/20 08:03:28;;;;;;;9.32;5.65;;;12.80;99.90;;;;;;5056131;28;20045;-81
2021/05/20 08:08:46;;;;;;;7.40;5.00;;;13.00;99.90;;;;;;5071756;28;20040;-79
2021/05/20 08:11:12;;;;;;;5.25;4.50;;;13.20;99.90;;;;;;5071707;28;20040;-79
2021/05/20 08:13:38;;;;;;;8.82;5.07;;;13.00;99.90;;;;;;5072812;28;20089;-79
2021/05/20 08:16:04;;;;;;;6.22;4.85;;;12.80;99.90;;;;;;5052820;28;20149;-81
2021/05/20 08:18:31;;;;;;;6.57;4.60;;;12.90;99.90;;;;;;5057681;28;20387;-80
2021/05/20 08:20:58;;;;;;;6.65;4.90;;;12.90;99.90;;;;;;5052790;28;20082;-82
2021/05/20 08:23:24;;;;;;;6.40;4.60;;;13.10;99.90;;;;;;5068757;28;20403;-84
2021/05/20 08:25:51;;;;;;;7.40;5.15;;;13.00;99.90;;;;;;5035176;28;20048;-83
2021/05/20 08:28:17;;;;;;;7.13;5.00;;;12.90;99.90;;;;;;5072218;28;20045;-83
2021/05/20 08:30:43;;;;;;;6.10;4.70;;;12.90;99.90;;;;;;5050428;28;20449;-82
2021/05/20 08:33:10;;;;;;;8.23;4.78;;;13.00;99.90;;;;;;5053086;28;20056;-82
2021/05/20 08:35:36;;;;;;;7.47;4.22;;;13.10;99.90;;;;;;5071629;28;20036;-85
2021/05/20 08:38:02;;;;;;;6.68;4.03;;;13.20;99.90;;;;;;5054687;28;20101;-81
2021/05/20 08:40:29;;;;;;;4.40;3.72;;;13.30;99.90;;;;;;5052510;28;20051;-82
2021/05/20 08:42:54;;;;;;;5.68;3.90;;;13.60;99.90;;;;;;5052574;28;20391;-82
2021/05/20 08:45:24;;;;;;;5.15;3.97;;;13.80;99.90;;;;;;5054571;28;20115;-80
2021/05/20 08:48:27;;;;;;;9.88;3.97;;;13.90;99.90;;;;;;5053979;28;20036;-83
2021/05/20 08:50:53;;;;;;;4.53;3.30;;;13.90;99.90;;;;;;5040657;28;20423;-80
2021/05/20 08:53:19;;;;;;;7.90;4.15;;;13.70;99.90;;;;;;5055499;28;20048;-79
2021/05/20 08:55:45;;;;;;;6.30;3.60;;;13.50;99.90;;;;;;5035995;28;20343;-80
2021/05/20 08:58:11;;;;;;;4.82;3.47;;;13.60;99.90;;;;;;5052417;28;20051;-82
2021/05/20 09:00:39;;;;;;;5.90;3.83;;;13.60;99.90;;;;;;5052362;28;20074;-82
2021/05/20 09:03:13;;;;;;;6.35;3.88;;;13.60;99.90;;;;;;5049809;28;20376;-82
2021/05/20 09:05:41;;;;;;;6.35;4.00;;;13.40;99.90;;;;;;5068486;28;20474;-81
2021/05/20 09:08:12;;;;;;;9.00;3.60;;;13.50;99.90;;;;;;5041053;28;20059;-83
2021/05/20 09:10:41;;;;;;;6.32;3.40;;;13.70;99.90;;;;;;5048068;28;20045;-82
2021/05/20 09:13:18;;;;;;;3.58;2.50;;;14.00;99.90;;;;;;5035931;28;20449;-84
2021/05/20 09:15:50;;;;;;;3.85;2.75;;;14.10;99.90;;;;;;5056741;28;20040;-82
2021/05/20 09:18:21;;;;;;;3.15;2.70;;;14.00;99.90;;;;;;5075406;28;20055;-81
2021/05/20 09:20:52;;;;;;;6.13;2.78;;;13.90;99.90;;;;;;5054049;28;20052;-82
2021/05/20 09:23:27;;;;;;;5.28;3.35;;;13.90;99.90;;;;;;5036371;28;20543;-82
2021/05/20 09:26:02;;;;;;;4.43;3.25;;;14.30;99.90;;;;;;5072016;28;20044;-82
2021/05/20 09:28:35;;;;;;;3.35;2.90;;;14.60;99.90;;;;;;5050222;28;20045;-81
2021/05/20 09:31:02;;;;;;;5.72;2.60;;;15.00;99.90;;;;;;5051456;28;20048;-83
2021/05/20 09:33:29;;;;;;;9.13;2.83;;;15.00;99.90;;;;;;5047378;28;20037;-83
2021/05/20 09:35:55;;;;;;;5.30;2.90;;;15.20;99.90;;;;;;5051831;28;20055;-84
2021/05/20 09:38:26;;;;;;;7.18;3.17;;;15.20;99.90;;;;;;5031773;28;20104;-82
2021/05/20 09:40:55;;;;;;;5.25;3.10;;;15.30;99.90;;;;;;5051140;28;20039;-82
2021/05/20 09:43:39;;;;;;;6.05;2.50;;;15.50;99.90;;;;;;5069197;28;20377;-81
2021/05/20 09:46:14;;;;;;;3.30;2.42;;;15.70;99.90;;;;;;5050320;28;20053;-81
2021/05/20 09:48:45;;;;;;;4.82;2.55;;;15.80;99.90;;;;;;5050327;28;20403;-82
2021/05/20 09:51:26;;;;;;;8.55;2.90;;;16.20;99.90;;;;;;5032509;28;20059;-85
2021/05/20 09:53:53;;;;;;;5.85;2.45;;;16.20;99.90;;;;;;5067551;28;20086;-83
2021/05/20 09:56:42;;;;;;;4.72;1.63;;;16.10;99.90;;;;;;5037513;28;20050;-84
2021/05/20 09:59:13;;;;;;;4.53;2.00;;;15.80;99.90;;;;;;5032212;28;20043;-82
2021/05/20 10:01:40;;;;;;;2.85;2.10;;;16.00;99.90;;;;;;5046497;28;20047;-81
2021/05/20 10:04:11;;;;;;;7.32;1.98;;;16.20;99.90;;;;;;5050464;28;20086;-81
2021/05/20 10:06:42;;;;;;;3.97;2.13;;;16.30;99.90;;;;;;5070637;28;20046;-81
2021/05/20 10:09:13;;;;;;;4.00;2.35;;;16.70;99.90;;;;;;5050028;28;20156;-82
2021/05/20 10:11:44;;;;;;;4.78;2.40;;;16.70;99.90;;;;;;5032405;28;20565;-81
2021/05/20 10:14:10;;;;;;;4.10;1.70;;;16.80;99.90;;;;;;5031991;28;20044;-82
2021/05/20 10:16:40;;;;;;;5.15;1.70;;;16.50;99.60;;;;;;5051198;28;20033;-80
2021/05/20 10:19:06;;;;;;;2.80;1.67;;;16.50;99.90;;;;;;5069957;28;20051;-81
2021/05/20 10:21:33;;;;;;;6.75;1.70;;;16.30;99.60;;;;;;5069154;28;20056;-81
2021/05/20 10:23:59;;;;;;;2.83;1.58;;;16.30;99.90;;;;;;5051537;28;20090;-82
2021/05/20 10:26:25;;;;;;;2.63;1.30;;;16.40;99.90;;;;;;5034397;28;20047;-81
2021/05/20 10:28:52;;;;;;;1.63;0.98;;;16.50;99.90;;;;;;5051486;28;20056;-80
2021/05/20 10:31:19;;;;;;;1.00;0.90;;;16.70;97.90;;;;;;5047250;28;20103;-81
2021/05/20 10:33:45;;;;;;;1.40;0.95;;;16.90;96.70;;;;;;5069220;28;20077;-81
2021/05/20 10:36:21;;;;;;;2.75;1.27;;;17.10;97.10;;;;;;5053549;28;20094;-81
2021/05/20 10:38:47;;;;;;;4.85;1.80;;;17.10;98.60;;;;;;5053955;28;20426;-81
2021/05/20 10:41:17;;;;;;;1.77;1.48;;;17.30;98.30;;;;;;5037361;28;20055;-81
2021/05/20 10:43:45;;;;;;;5.00;1.85;;;17.60;97.20;;;;;;5054034;28;20427;-81
2021/05/20 10:46:13;;;;;;;2.40;1.67;;;17.70;97.90;;;;;;5052802;28;20053;-81
2021/05/20 10:48:53;;;;;;;2.70;1.80;;;18.10;97.30;;;;;;5036513;28;20078;-81
2021/05/20 10:51:26;;;;;;;5.38;1.52;;;18.10;96.70;;;;;;5071577;28;20546;-81
2021/05/20 10:54:09;;;;;;;4.80;2.03;;;17.70;97.00;;;;;;5053434;28;20044;-82
2021/05/20 10:56:38;;;;;;;7.22;2.30;;;17.60;96.50;;;;;;5035857;28;20048;-82
2021/05/20 10:59:31;;;;;;;2.75;1.70;;;17.60;98.50;;;;;;5047542;28;20162;-82
2021/05/20 11:01:57;;;;;;;6.05;1.50;;;17.70;97.80;;;;;;5031603;28;20045;-83
2021/05/20 11:04:38;;;;;;;5.00;1.30;;;17.80;96.40;;;;;;5050803;28;20166;-78
2021/05/20 11:07:04;;;;;;;1.70;1.15;;;17.80;92.80;;;;;;5068275;28;20037;-79
2021/05/20 11:09:50;;;;;;;2.15;1.10;;;18.10;93.90;;;;;;5048416;28;20056;-79
2021/05/20 11:12:19;;;;;;;2.78;1.50;;;17.80;88.50;;;;;;5066818;28;20032;-80
2021/05/20 11:14:46;;;;;;;6.35;1.73;;;17.90;94.00;;;;;;5047907;28;20090;-78
2021/05/20 11:17:35;;;;;;;3.90;2.15;;;17.70;96.00;;;;;;5047389;28;20496;-80
2021/05/20 11:20:36;;;;;;;2.08;1.60;;;17.70;97.40;;;;;;5068692;28;20048;-82
2021/05/20 11:23:21;;;;;;;5.72;1.70;;;17.70;94.60;;;;;;5065706;28;20047;-79
2021/05/20 11:25:58;;;;;;;1.63;1.50;;;18.20;97.60;;;;;;5054840;28;20060;-80
2021/05/20 11:28:24;;;;;;;2.45;1.63;;;18.70;97.50;;;;;;5050011;28;20098;-81
2021/05/20 11:30:58;;;;;;;4.03;1.67;;;18.80;95.90;;;;;;5068931;28;20033;-81
2021/05/20 11:33:25;;;;;;;3.15;1.50;;;19.10;96.80;;;;;;5067278;28;20444;-81
2021/05/20 11:38:30;;;;;;;2.95;1.50;;;19.30;93.30;;;;;;5069353;28;20883;-81
2021/05/20 11:40:56;;;;;;;3.13;1.88;;;19.50;94.60;;;;;;5070093;28;20036;-81
2021/05/20 11:43:29;;;;;;;2.15;1.30;;;19.30;94.30;;;;;;5036923;28;20053;-81
2021/05/20 11:45:56;;;;;;;2.53;1.20;;;19.00;94.30;;;;;;5071116;28;20043;-81
2021/05/20 11:48:22;;;;;;;3.13;1.20;;;18.50;94.70;;;;;;5039733;28;20052;-81
2021/05/20 11:50:52;;;;;;;2.92;1.17;;;18.90;91.70;;;;;;5072153;28;20098;-80
2021/05/20 11:53:18;;;;;;;1.65;0.80;;;19.50;94.90;;;;;;5036460;28;20101;-82
2021/05/20 11:55:46;;;;;;;4.90;0.90;;;19.90;88.70;;;;;;5052408;28;20056;-82
2021/05/20 11:58:16;;;;;;;2.53;0.73;;;20.10;84.40;;;;;;5074565;28;20041;-81
2021/05/20 12:00:42;;;;;;;1.80;0.80;;;20.00;80.90;;;;;;5053243;28;20048;-82
2021/05/20 12:03:09;;;;;;;2.60;0.90;;;19.80;80.90;;;;;;5037028;28;20198;-80
2021/05/20 12:05:36;;;;;;;1.85;0.95;;;19.90;76.30;;;;;;5033905;28;20036;-82
2021/05/20 12:08:03;;;;;;;3.42;1.10;;;19.70;67.20;;;;;;5038794;28;20070;-82
2021/05/20 12:10:28;;;;;;;2.47;0.93;;;19.70;69.40;;;;;;5072940;28;20055;-82
2021/05/20 12:13:01;;;;;;;5.93;0.90;;;20.00;67.50;;;;;;5056416;28;20071;-82
2021/05/20 12:15:29;;;;;;;2.65;0.80;;;20.10;63.00;;;;;;5073057;28;20048;-84
2021/05/20 12:18:01;;;;;;;1.48;0.63;;;20.20;67.00;;;;;;5040049;28;20135;-81
2021/05/20 12:20:29;;;;;;;1.48;0.65;;;20.40;63.60;;;;;;5039352;28;20416;-81
2021/05/20 12:22:55;;;;;;;2.22;0.60;;;20.10;59.20;;;;;;5039653;28;20132;-82
2021/05/20 12:25:24;;;;;;;0.98;0.68;;;19.70;60.70;;;;;;5039049;28;20078;-83
2021/05/20 12:27:55;;;;;;;1.33;0.80;;;19.70;60.70;;;;;;5040058;28;20041;-83
2021/05/20 12:30:34;;;;;;;3.15;0.85;;;19.90;65.00;;;;;;5054622;28;20056;-81
2021/05/20 12:33:03;;;;;;;1.50;0.88;;;20.00;58.60;;;;;;5040491;28;20041;-82
2021/05/20 12:35:45;;;;;;;2.38;0.90;;;20.00;61.70;;;;;;5038198;28;20040;-82
2021/05/20 12:38:22;;;;;;;1.38;0.90;;;19.90;61.10;;;;;;5037498;28;20550;-82
2021/05/20 12:40:54;;;;;;;3.72;1.40;;;20.10;62.60;;;;;;5020186;28;20045;-82
2021/05/20 12:43:29;;;;;;;1.85;1.13;;;19.60;61.00;;;;;;5027857;28;20067;-79
2021/05/20 12:45:58;;;;;;;3.13;1.45;;;19.80;67.20;;;;;;5049811;28;20045;-80
2021/05/20 12:48:30;;;;;;;2.15;1.48;;;20.00;64.80;;;;;;5051773;28;20102;-79
2021/05/20 12:50:58;;;;;;;2.13;1.52;;;19.90;67.00;;;;;;5051205;28;20127;-80